Index of /release1/deviceFirmware/

File Name  ↓ File Size  ↓ Date  ↓ 
Parent directory/--
archive/-2021-May-18 14:21
02_01_0482_Temp.bin 442922017-Aug-25 19:06
04_01_048E_Conductivity.bin 650282017-Aug-25 19:07
05_02_0489_LDO.bin 560682017-Aug-25 19:07
06_01_048C_pH.bin 506922021-May-04 20:15
08_01_0487_Depth10.bin 506922017-Aug-01 21:05
08_02_0487_Depth25.bin 483882017-Aug-01 21:05
08_03_0487_Depth100.bin 483882017-Aug-01 21:05
08_04_0487_Depth200.bin 483882017-Aug-01 21:05
0A_01_048B_Turbidity.bin 506922018-Jun-29 19:53
0A_02_048B_TurbidityB.bin 506922018-Jun-29 19:53
0A_03_048A_CentralWiper.bin 468522016-Dec-13 15:29
0B_01_0485_ChlA.bin 499242018-May-30 21:38
0B_02_0485_RWT.bin 499242018-May-30 21:38
0B_03_0485_BGAF.bin 499242018-May-30 21:38
0B_04_0485_BGAM.bin 499242018-May-30 21:38
0D_01_0480_ISENH4.bin 542762019-Sep-17 19:35
0D_02_0480_ISENO3.bin 537642019-Sep-17 19:35
0D_03_0480_ISECl.bin 537642019-Sep-17 19:35
97_01_048C_pHORP.bin 524842021-May-04 20:15
98_01_0482_TempCirc.bin 453162017-Aug-25 19:08
99_01_0480_ISENH4NO3.bin 555562019-Sep-17 19:35
C8_01_04EF_ComMod.bin 3153962021-May-18 14:21
C8_02_04EF_ComSDI12.bin 3153962021-May-18 14:21
C8_03_04EF_ComMB232.bin 3153962021-May-18 14:21
C8_04_04EF_ComMB485.bin 3153962021-May-18 14:21
C8_05_04EF_ComTTY.bin 3153962021-May-18 14:21
C9_01_0509_Surveyor.bin 43499562020-Feb-12 21:27
C9_02_0509_Surveyor.bin 43663402020-Feb-12 21:27
CA_01_0491_HL4.bin 1218602018-Nov-16 22:56
CA_02_0491_HL7.bin 1218602018-Nov-16 22:56
CRCList.txt 9732021-May-18 14:21
DB_03_0051_HCFF.bin 4582482019-Sep-25 15:06